Time;durP1;ratioP1;P1;durP2;ratioP2;P2;SDS_P1;SDS_P2;PMS_P1;PMS_P2;Temp;Humidity;BMP_temperature;BMP_pressure;BME280_temperature;BME280_humidity;BME280_pressure;Samples;Min_cycle;Max_cycle;Signal;HPM_P1;HPM_P2
2021/06/30 00:02:42;;;;;;;6.80;5.95;;;26.80;60.60;;;;;;6132028;28;81153;-66
2021/06/30 00:05:43;;;;;;;9.85;6.05;;;26.80;60.70;;;;;;6133716;28;80549;-66
2021/06/30 00:08:43;;;;;;;9.05;6.55;;;26.80;60.50;;;;;;6123799;28;80460;-66
2021/06/30 00:11:44;;;;;;;8.05;5.75;;;26.70;60.40;;;;;;6135006;28;81107;-66
2021/06/30 00:14:45;;;;;;;8.60;6.05;;;26.80;60.60;;;;;;6132027;28;80525;-66
2021/06/30 00:17:46;;;;;;;6.53;5.90;;;26.80;60.40;;;;;;6127828;28;81845;-66
2021/06/30 00:20:46;;;;;;;8.98;6.40;;;26.80;60.40;;;;;;6122744;28;80361;-67
2021/06/30 00:23:47;;;;;;;9.20;6.35;;;26.80;60.20;;;;;;6134772;28;80270;-67
2021/06/30 00:26:47;;;;;;;12.13;6.53;;;26.80;60.10;;;;;;6134648;28;80566;-66
2021/06/30 00:29:48;;;;;;;8.27;6.30;;;26.70;60.10;;;;;;6126885;28;81110;-66
2021/06/30 00:32:48;;;;;;;8.90;6.07;;;26.70;60.00;;;;;;6134141;28;81172;-69
2021/06/30 00:35:49;;;;;;;8.10;7.13;;;26.80;60.00;;;;;;6124795;28;81014;-69
2021/06/30 00:38:49;;;;;;;11.80;6.20;;;26.70;60.00;;;;;;6131046;28;80559;-69
2021/06/30 00:41:50;;;;;;;11.77;7.05;;;26.70;60.10;;;;;;6130476;28;80854;-69
2021/06/30 00:44:50;;;;;;;8.40;6.15;;;26.70;60.10;;;;;;6126542;28;80639;-69
2021/06/30 00:47:51;;;;;;;7.85;6.93;;;26.60;60.20;;;;;;6152063;28;80541;-69
2021/06/30 00:50:51;;;;;;;11.85;7.53;;;26.60;60.60;;;;;;6131431;28;80452;-69
2021/06/30 00:53:52;;;;;;;13.90;8.68;;;26.60;60.60;;;;;;6131506;28;80898;-69
2021/06/30 00:56:52;;;;;;;9.07;7.72;;;26.60;60.70;;;;;;6134820;28;80604;-69
2021/06/30 00:59:54;;;;;;;11.95;8.48;;;26.60;60.70;;;;;;6130451;28;82367;-67
2021/06/30 01:02:55;;;;;;;11.95;8.68;;;26.60;60.70;;;;;;6133849;28;80330;-68
2021/06/30 01:05:55;;;;;;;10.95;8.48;;;26.60;60.70;;;;;;6124967;28;81055;-67
2021/06/30 01:08:56;;;;;;;12.95;8.98;;;26.60;60.80;;;;;;6133272;28;81193;-69
2021/06/30 01:11:56;;;;;;;13.65;9.55;;;26.60;60.70;;;;;;6126786;28;81525;-69
2021/06/30 01:14:57;;;;;;;14.77;9.48;;;26.50;60.70;;;;;;6128335;28;80383;-69
2021/06/30 01:17:57;;;;;;;12.55;9.55;;;26.50;60.90;;;;;;6128577;28;80380;-69
2021/06/30 01:20:58;;;;;;;13.10;8.93;;;26.50;61.00;;;;;;6132109;28;80385;-69
2021/06/30 01:23:58;;;;;;;12.70;8.43;;;26.50;61.10;;;;;;6107172;28;80801;-68
2021/06/30 01:26:59;;;;;;;15.70;8.15;;;26.50;61.20;;;;;;6117030;28;80773;-67
2021/06/30 01:29:59;;;;;;;11.40;6.80;;;26.50;60.70;;;;;;6130603;28;81617;-68
2021/06/30 01:33:00;;;;;;;16.25;5.05;;;26.40;60.30;;;;;;6131670;28;80359;-68
2021/06/30 01:36:00;;;;;;;13.35;4.65;;;26.10;58.70;;;;;;6135145;28;80489;-68
2021/06/30 01:39:01;;;;;;;12.27;3.72;;;26.00;59.30;;;;;;6127907;28;81692;-68
2021/06/30 01:42:01;;;;;;;12.35;3.22;;;26.00;57.80;;;;;;6116177;28;80392;-70
2021/06/30 01:45:02;;;;;;;4.85;2.83;;;25.80;58.10;;;;;;6126835;28;81516;-69
2021/06/30 01:48:02;;;;;;;9.50;3.00;;;25.50;58.40;;;;;;6131239;28;81140;-69
2021/06/30 01:51:03;;;;;;;4.53;2.53;;;25.70;58.00;;;;;;6131650;28;81009;-69
2021/06/30 01:54:03;;;;;;;13.15;2.60;;;25.80;57.60;;;;;;6133576;28;82144;-71
2021/06/30 01:57:04;;;;;;;7.55;2.63;;;25.80;57.00;;;;;;6129846;28;80651;-69
2021/06/30 02:00:04;;;;;;;7.60;2.05;;;25.70;57.30;;;;;;6133006;28;80864;-69
2021/06/30 02:03:06;;;;;;;10.40;2.15;;;25.70;57.20;;;;;;6132337;28;80769;-70
2021/06/30 02:06:06;;;;;;;13.52;2.75;;;25.80;57.00;;;;;;6136740;28;80546;-73
2021/06/30 02:09:07;;;;;;;3.95;2.25;;;25.90;57.00;;;;;;6129661;28;80281;-71
2021/06/30 02:12:07;;;;;;;4.50;2.20;;;25.80;56.70;;;;;;6132542;28;80978;-71
2021/06/30 02:15:08;;;;;;;11.32;2.53;;;25.70;56.80;;;;;;6117163;28;80511;-70
2021/06/30 02:18:09;;;;;;;6.00;2.40;;;25.70;56.70;;;;;;6136939;28;82787;-68
2021/06/30 02:21:09;;;;;;;10.23;2.25;;;25.70;56.90;;;;;;6136175;28;81053;-67
2021/06/30 02:24:10;;;;;;;4.25;2.05;;;25.70;56.90;;;;;;6134652;28;81394;-68
2021/06/30 02:27:10;;;;;;;6.93;2.45;;;25.80;56.90;;;;;;6138227;28;80375;-67
2021/06/30 02:30:11;;;;;;;7.97;2.10;;;25.90;56.90;;;;;;6132747;28;81269;-67
2021/06/30 02:33:11;;;;;;;6.53;1.92;;;25.90;57.30;;;;;;6135286;28;80541;-68
2021/06/30 02:36:12;;;;;;;3.92;2.00;;;25.90;57.20;;;;;;6130761;28;80649;-69
2021/06/30 02:39:12;;;;;;;5.15;2.25;;;25.60;57.30;;;;;;6134260;28;80919;-69
2021/06/30 02:42:13;;;;;;;11.05;2.50;;;25.20;58.20;;;;;;6137856;28;80421;-67
2021/06/30 02:45:13;;;;;;;6.05;1.83;;;25.40;57.60;;;;;;6131153;28;81533;-67
2021/06/30 02:48:13;;;;;;;13.32;2.10;;;25.60;57.60;;;;;;6130235;28;80213;-67
2021/06/30 02:51:14;;;;;;;4.95;2.30;;;25.70;57.60;;;;;;6136747;28;80612;-66
2021/06/30 02:54:15;;;;;;;11.20;2.13;;;25.30;58.30;;;;;;6138024;28;80766;-67
2021/06/30 02:57:15;;;;;;;6.00;2.42;;;25.50;58.10;;;;;;6127099;28;81623;-67
2021/06/30 03:00:16;;;;;;;12.00;2.40;;;25.60;58.10;;;;;;6137675;28;80910;-68
2021/06/30 03:03:16;;;;;;;5.53;2.10;;;25.70;57.60;;;;;;6130977;28;82799;-68
2021/06/30 03:06:17;;;;;;;8.13;2.05;;;25.70;57.60;;;;;;6136987;28;81018;-68
2021/06/30 03:09:19;;;;;;;7.43;2.25;;;25.70;57.20;;;;;;6131086;28;81546;-68
2021/06/30 03:12:20;;;;;;;6.75;2.13;;;25.70;57.20;;;;;;6135551;28;80390;-68
2021/06/30 03:15:20;;;;;;;9.77;1.92;;;25.60;57.20;;;;;;6131684;28;80297;-68
2021/06/30 03:18:21;;;;;;;5.78;2.17;;;25.40;57.70;;;;;;6133899;28;81363;-68
2021/06/30 03:21:21;;;;;;;8.30;2.38;;;25.10;58.10;;;;;;6135059;28;80598;-68
2021/06/30 03:24:22;;;;;;;16.13;3.10;;;24.90;59.00;;;;;;6145210;28;81086;-69
2021/06/30 03:27:22;;;;;;;8.63;3.17;;;24.70;59.40;;;;;;6132246;28;80444;-67
2021/06/30 03:30:23;;;;;;;9.52;3.40;;;24.60;59.80;;;;;;6132865;28;80924;-68
2021/06/30 03:33:23;;;;;;;8.80;2.25;;;24.60;59.90;;;;;;6134109;28;82357;-67
2021/06/30 03:36:24;;;;;;;6.32;2.60;;;24.60;59.80;;;;;;6135242;28;80420;-68
2021/06/30 03:39:24;;;;;;;4.00;2.63;;;24.70;59.70;;;;;;6127587;28;80530;-70
2021/06/30 03:42:25;;;;;;;8.73;2.10;;;24.80;59.60;;;;;;6122576;28;80616;-71
2021/06/30 03:45:25;;;;;;;3.85;2.38;;;24.90;59.20;;;;;;6132688;28;80331;-70
2021/06/30 03:48:26;;;;;;;3.25;2.00;;;25.00;58.70;;;;;;6134068;28;80500;-71
2021/06/30 03:51:26;;;;;;;5.53;2.30;;;25.10;58.50;;;;;;6130219;28;80425;-72
2021/06/30 03:54:27;;;;;;;6.15;2.22;;;25.30;58.50;;;;;;6134130;28;80904;-71
2021/06/30 03:57:28;;;;;;;5.13;2.63;;;25.30;58.10;;;;;;6132545;28;80549;-70
2021/06/30 04:00:28;;;;;;;10.30;3.00;;;25.40;58.10;;;;;;6120866;28;81407;-69
2021/06/30 04:03:29;;;;;;;4.28;2.25;;;25.40;57.80;;;;;;6134463;28;81383;-71
2021/06/30 04:06:29;;;;;;;5.00;2.50;;;25.50;57.80;;;;;;6117660;28;80791;-68
2021/06/30 04:09:29;;;;;;;3.05;2.30;;;25.50;57.70;;;;;;6132441;28;80799;-71
2021/06/30 04:12:30;;;;;;;5.50;2.10;;;25.50;57.80;;;;;;6158008;28;80998;-71
2021/06/30 04:15:30;;;;;;;2.78;2.20;;;25.70;57.80;;;;;;6133804;28;80783;-73
2021/06/30 04:18:31;;;;;;;3.50;2.10;;;25.70;58.00;;;;;;6119911;28;80606;-70
2021/06/30 04:21:31;;;;;;;4.60;2.40;;;25.80;58.50;;;;;;6127250;28;80428;-68
2021/06/30 04:24:32;;;;;;;4.88;2.05;;;25.90;58.50;;;;;;6133949;28;80384;-73
2021/06/30 04:27:32;;;;;;;4.35;2.38;;;25.90;58.50;;;;;;6116733;28;80499;-71
2021/06/30 04:30:33;;;;;;;6.20;2.42;;;26.00;58.70;;;;;;6131213;28;84936;-71
2021/06/30 04:33:33;;;;;;;7.05;2.70;;;26.00;58.80;;;;;;6125602;28;80233;-71
2021/06/30 04:36:34;;;;;;;4.88;2.70;;;26.00;58.90;;;;;;6127694;28;81263;-72
2021/06/30 04:39:35;;;;;;;3.42;2.53;;;26.00;58.90;;;;;;6134074;28;81253;-73
2021/06/30 04:42:35;;;;;;;4.28;2.35;;;26.00;59.00;;;;;;6121162;28;81650;-71
2021/06/30 04:45:36;;;;;;;9.98;2.45;;;26.00;59.00;;;;;;6129052;28;81064;-70
2021/06/30 04:48:36;;;;;;;4.63;2.40;;;26.10;58.80;;;;;;6123744;28;80609;-68
2021/06/30 04:51:37;;;;;;;8.95;2.67;;;26.10;58.60;;;;;;6128188;28;80653;-70
2021/06/30 04:54:37;;;;;;;8.23;2.65;;;26.20;58.70;;;;;;6129342;28;80472;-69
2021/06/30 04:57:38;;;;;;;6.53;2.38;;;26.20;58.60;;;;;;6132364;28;81341;-69
2021/06/30 05:00:38;;;;;;;7.28;2.70;;;26.20;58.30;;;;;;6124582;28;81028;-68
2021/06/30 05:03:39;;;;;;;6.60;2.40;;;26.30;58.40;;;;;;6121293;28;80716;-68
2021/06/30 05:06:39;;;;;;;6.07;2.55;;;26.30;58.20;;;;;;6129938;28;80624;-72
2021/06/30 05:09:40;;;;;;;11.85;2.53;;;26.30;58.40;;;;;;6125290;28;80477;-72
2021/06/30 05:12:40;;;;;;;6.82;2.95;;;26.40;58.40;;;;;;6133460;28;80749;-72
2021/06/30 05:15:41;;;;;;;8.93;3.35;;;26.40;58.10;;;;;;6129171;28;80428;-70
2021/06/30 05:18:41;;;;;;;8.80;3.10;;;26.40;57.90;;;;;;6127981;28;81123;-70
2021/06/30 05:21:42;;;;;;;6.38;2.90;;;26.40;58.10;;;;;;6124022;28;80055;-70
2021/06/30 05:24:42;;;;;;;4.90;2.72;;;26.40;58.80;;;;;;6132218;28;80402;-68
2021/06/30 05:27:43;;;;;;;9.88;3.33;;;26.40;58.30;;;;;;6131163;28;80062;-68
2021/06/30 05:30:43;;;;;;;6.13;2.85;;;26.40;58.30;;;;;;6117566;28;84545;-70
2021/06/30 05:33:44;;;;;;;4.43;2.85;;;26.40;58.30;;;;;;6131003;28;80812;-71
2021/06/30 05:36:48;;;;;;;9.75;3.28;;;26.40;58.10;;;;;;6113454;28;81547;-71
2021/06/30 05:39:49;;;;;;;5.45;2.75;;;26.40;58.60;;;;;;6133430;28;80557;-72
2021/06/30 05:42:49;;;;;;;6.32;3.13;;;26.40;58.30;;;;;;6137285;28;81040;-71
2021/06/30 05:45:50;;;;;;;5.15;3.72;;;26.40;58.00;;;;;;6133736;28;81636;-72
2021/06/30 05:48:50;;;;;;;7.35;3.15;;;26.40;58.30;;;;;;6133420;28;80632;-70
2021/06/30 05:51:51;;;;;;;6.13;3.13;;;26.40;58.40;;;;;;6133819;28;81170;-69
2021/06/30 05:54:51;;;;;;;7.40;3.22;;;26.40;58.30;;;;;;6137469;28;80676;-70
2021/06/30 05:57:52;;;;;;;7.25;3.15;;;26.30;58.40;;;;;;6137256;28;81329;-70
2021/06/30 06:00:52;;;;;;;5.72;2.78;;;26.40;58.10;;;;;;6133598;28;80449;-70
2021/06/30 06:03:53;;;;;;;10.95;3.13;;;26.40;58.20;;;;;;6137405;28;80298;-70
2021/06/30 06:06:53;;;;;;;9.20;3.42;;;26.40;58.10;;;;;;6129374;28;81528;-70
2021/06/30 06:09:54;;;;;;;8.55;5.05;;;26.30;58.20;;;;;;6122859;28;81335;-70
2021/06/30 06:12:54;;;;;;;7.72;4.68;;;26.30;58.00;;;;;;6105826;28;80783;-71
2021/06/30 06:15:55;;;;;;;6.75;4.13;;;26.30;58.20;;;;;;6111348;28;80338;-70
2021/06/30 06:18:55;;;;;;;8.45;4.07;;;26.30;58.20;;;;;;6114147;28;81828;-70
2021/06/30 06:21:58;;;;;;;10.27;3.85;;;26.30;58.20;;;;;;6131908;28;80432;-71
2021/06/30 06:24:58;;;;;;;7.57;3.70;;;26.30;58.20;;;;;;6132407;28;82787;-71
2021/06/30 06:27:59;;;;;;;11.38;3.20;;;26.40;58.10;;;;;;6132194;28;80693;-70
2021/06/30 06:30:59;;;;;;;7.80;3.90;;;26.30;57.80;;;;;;6126728;28;81620;-69
2021/06/30 06:34:00;;;;;;;6.65;4.00;;;26.30;57.70;;;;;;6126366;28;80057;-71
2021/06/30 06:37:00;;;;;;;10.50;3.47;;;26.40;57.80;;;;;;6128285;28;80670;-70
2021/06/30 06:40:01;;;;;;;5.18;3.30;;;26.40;57.90;;;;;;6126194;28;81695;-70
2021/06/30 06:43:02;;;;;;;4.38;3.30;;;26.40;57.70;;;;;;6133086;28;81033;-71
2021/06/30 06:46:02;;;;;;;5.13;3.25;;;26.30;57.40;;;;;;6131703;28;80356;-70
2021/06/30 06:49:03;;;;;;;4.25;3.15;;;26.40;57.60;;;;;;6137313;28;81619;-70
2021/06/30 06:52:03;;;;;;;10.25;4.03;;;26.40;57.40;;;;;;6132623;28;83301;-70
2021/06/30 06:55:09;;;;;;;10.48;2.72;;;26.40;57.40;;;;;;6138911;28;81341;-71
2021/06/30 06:58:10;;;;;;;3.63;2.72;;;26.30;56.90;;;;;;6135329;28;85021;-68
2021/06/30 07:01:10;;;;;;;4.15;2.63;;;26.30;56.80;;;;;;6129643;28;81861;-70
2021/06/30 07:04:11;;;;;;;10.82;5.55;;;26.30;56.40;;;;;;6130563;28;81255;-69
2021/06/30 07:07:13;;;;;;;9.80;5.72;;;26.30;56.50;;;;;;6133235;28;80881;-70
2021/06/30 07:10:13;;;;;;;6.38;4.22;;;26.30;56.40;;;;;;6134349;28;80808;-70
2021/06/30 07:13:14;;;;;;;9.25;3.90;;;26.30;56.70;;;;;;6134334;28;80560;-70
2021/06/30 07:16:15;;;;;;;7.53;2.90;;;26.20;56.40;;;;;;6129962;28;80453;-67
2021/06/30 07:19:15;;;;;;;5.90;2.75;;;26.20;56.10;;;;;;6133191;28;83369;-72
2021/06/30 07:22:16;;;;;;;6.72;2.35;;;26.10;56.30;;;;;;6135038;28;80576;-69
2021/06/30 07:25:19;;;;;;;6.60;2.53;;;26.20;56.50;;;;;;6132447;28;82550;-69
2021/06/30 07:28:19;;;;;;;5.78;2.78;;;26.20;56.40;;;;;;6133155;28;80916;-68
2021/06/30 07:31:21;;;;;;;4.40;2.65;;;26.30;56.50;;;;;;6134988;28;81083;-69
2021/06/30 07:34:22;;;;;;;7.60;3.25;;;26.30;56.60;;;;;;6132740;28;80574;-69
2021/06/30 07:37:23;;;;;;;5.18;3.10;;;26.40;56.00;;;;;;6109783;28;80979;-69
2021/06/30 07:40:23;;;;;;;3.78;2.53;;;26.40;55.80;;;;;;6128957;28;82453;-68
2021/06/30 07:43:24;;;;;;;7.60;2.72;;;26.40;56.00;;;;;;6130206;28;81094;-70
2021/06/30 07:46:24;;;;;;;3.83;2.03;;;26.40;55.40;;;;;;6135025;28;80830;-70
2021/06/30 07:49:24;;;;;;;3.28;2.17;;;26.30;55.10;;;;;;6132441;28;81076;-70
2021/06/30 07:52:25;;;;;;;3.38;2.00;;;26.30;54.70;;;;;;6132547;28;81559;-69
2021/06/30 07:55:26;;;;;;;7.95;4.43;;;26.30;54.90;;;;;;6132381;28;81291;-67
2021/06/30 07:58:26;;;;;;;7.20;4.35;;;26.30;54.50;;;;;;6132482;28;80875;-70
2021/06/30 08:01:27;;;;;;;4.75;3.13;;;26.30;54.80;;;;;;6127172;28;83019;-69
2021/06/30 08:04:27;;;;;;;4.10;2.65;;;26.40;54.40;;;;;;6133700;28;81334;-70
2021/06/30 08:07:28;;;;;;;3.42;2.25;;;26.40;54.60;;;;;;6135578;28;80708;-70
2021/06/30 08:10:28;;;;;;;3.17;2.15;;;26.30;54.80;;;;;;6132201;28;80263;-69
2021/06/30 08:13:29;;;;;;;6.20;2.55;;;26.20;54.50;;;;;;6130576;28;81733;-72
2021/06/30 08:16:30;;;;;;;2.67;2.13;;;26.20;54.90;;;;;;6131314;28;80936;-70
2021/06/30 08:19:30;;;;;;;2.53;1.88;;;26.30;54.90;;;;;;6134223;28;80666;-69
2021/06/30 08:22:31;;;;;;;3.38;1.90;;;26.30;54.90;;;;;;6131736;28;81050;-70
2021/06/30 08:25:31;;;;;;;6.68;2.20;;;26.30;55.00;;;;;;6124852;28;80559;-70
2021/06/30 08:28:32;;;;;;;4.93;1.80;;;26.30;55.10;;;;;;6132892;28;80642;-68
2021/06/30 08:31:32;;;;;;;8.32;2.00;;;26.40;55.10;;;;;;6128415;28;80383;-68
2021/06/30 08:34:33;;;;;;;2.60;2.00;;;26.30;55.00;;;;;;6133988;28;80629;-68
2021/06/30 08:37:39;;;;;;;5.68;2.00;;;26.30;54.60;;;;;;6131794;28;80168;-67
2021/06/30 08:40:39;;;;;;;3.58;2.00;;;26.20;54.70;;;;;;6135331;28;81334;-69
2021/06/30 08:43:40;;;;;;;5.15;2.10;;;26.30;54.70;;;;;;6128359;28;81555;-68
2021/06/30 08:46:41;;;;;;;5.88;2.50;;;26.40;54.40;;;;;;6133718;28;80711;-68
2021/06/30 08:49:41;;;;;;;4.93;1.80;;;26.40;54.50;;;;;;6133768;28;81257;-68
2021/06/30 08:52:42;;;;;;;5.63;2.40;;;26.40;54.40;;;;;;6134267;28;80998;-68
2021/06/30 08:55:42;;;;;;;2.60;2.00;;;26.40;54.70;;;;;;6132126;28;81638;-69
2021/06/30 08:58:43;;;;;;;5.55;2.10;;;26.40;55.10;;;;;;6133030;28;80695;-70
2021/06/30 09:01:45;;;;;;;4.63;2.05;;;26.50;55.00;;;;;;6130834;28;80428;-69
2021/06/30 09:04:45;;;;;;;4.82;2.55;;;26.50;54.90;;;;;;6133176;28;80569;-70
2021/06/30 09:07:46;;;;;;;3.45;1.95;;;26.50;55.30;;;;;;6132317;28;82834;-70
2021/06/30 09:10:46;;;;;;;8.80;2.13;;;26.50;55.20;;;;;;6128057;28;81705;-68
2021/06/30 09:13:47;;;;;;;3.78;2.50;;;26.50;55.20;;;;;;6131981;28;81323;-69
2021/06/30 09:16:48;;;;;;;3.33;2.10;;;26.60;55.10;;;;;;6141333;28;81127;-69
2021/06/30 09:19:49;;;;;;;4.25;2.22;;;26.60;54.90;;;;;;6140696;28;80372;-69
2021/06/30 09:22:51;;;;;;;3.10;2.42;;;26.60;54.60;;;;;;6140037;28;80606;-69
2021/06/30 09:25:52;;;;;;;2.83;1.88;;;26.50;54.80;;;;;;6139657;28;80652;-70
2021/06/30 09:28:53;;;;;;;4.18;2.67;;;26.60;54.90;;;;;;6143275;28;80832;-69
2021/06/30 09:31:53;;;;;;;2.47;2.05;;;26.60;54.90;;;;;;6138653;28;84229;-69
2021/06/30 09:34:54;;;;;;;4.35;2.67;;;26.70;54.80;;;;;;6139414;28;80312;-70
2021/06/30 09:37:54;;;;;;;2.33;2.00;;;26.50;54.60;;;;;;6139204;28;81172;-69
2021/06/30 09:40:55;;;;;;;3.60;2.08;;;26.50;54.80;;;;;;6167747;28;80115;-70
2021/06/30 09:43:55;;;;;;;5.65;2.25;;;26.60;54.60;;;;;;6143189;28;81051;-70
2021/06/30 09:46:56;;;;;;;2.60;2.40;;;26.70;54.60;;;;;;6141546;28;80763;-71
2021/06/30 09:49:56;;;;;;;4.60;2.30;;;26.70;54.60;;;;;;6139738;28;81629;-70
2021/06/30 09:52:57;;;;;;;4.90;1.88;;;26.70;54.40;;;;;;6138918;28;80631;-69
2021/06/30 09:55:57;;;;;;;3.20;2.28;;;26.70;54.70;;;;;;6136356;28;80468;-69
2021/06/30 09:58:58;;;;;;;2.65;2.00;;;26.70;54.90;;;;;;6142016;28;80606;-69
2021/06/30 10:01:58;;;;;;;3.70;1.88;;;26.70;54.60;;;;;;6139513;28;80343;-70
2021/06/30 10:04:59;;;;;;;2.42;2.20;;;26.70;54.50;;;;;;6136501;28;81062;-70
2021/06/30 10:07:59;;;;;;;2.72;2.20;;;26.80;54.40;;;;;;6140450;28;80302;-71
2021/06/30 10:11:00;;;;;;;2.42;1.95;;;26.70;54.50;;;;;;6138930;28;80742;-72
2021/06/30 10:14:00;;;;;;;5.07;2.08;;;26.80;54.40;;;;;;6142062;28;81942;-70
2021/06/30 10:17:01;;;;;;;3.83;2.35;;;26.80;54.30;;;;;;6142710;28;83374;-69
2021/06/30 10:20:02;;;;;;;4.85;2.20;;;26.80;54.80;;;;;;6139811;28;82219;-70
2021/06/30 10:23:03;;;;;;;3.80;2.22;;;26.90;54.80;;;;;;6138576;28;80097;-69
2021/06/30 10:26:03;;;;;;;13.35;7.65;;;26.80;54.90;;;;;;6138454;28;80912;-70
2021/06/30 10:29:04;;;;;;;19.70;10.52;;;26.80;55.60;;;;;;6132888;28;80498;-67
2021/06/30 10:32:04;;;;;;;28.08;18.50;;;26.90;55.20;;;;;;6131854;28;83550;-69
2021/06/30 10:35:05;;;;;;;22.02;12.43;;;26.90;54.80;;;;;;6130642;28;82896;-70
2021/06/30 10:38:05;;;;;;;12.75;6.93;;;26.90;54.50;;;;;;6133027;28;83133;-70
2021/06/30 10:41:06;;;;;;;13.57;8.65;;;26.80;54.10;;;;;;6138146;28;82349;-70
2021/06/30 10:44:06;;;;;;;7.47;4.95;;;26.80;54.20;;;;;;6130661;28;82057;-69
2021/06/30 10:47:07;;;;;;;7.53;4.63;;;26.90;54.50;;;;;;6133372;28;81323;-69
2021/06/30 10:50:07;;;;;;;6.53;3.42;;;26.90;54.20;;;;;;6130377;28;80599;-69
2021/06/30 10:53:09;;;;;;;5.40;3.28;;;26.90;54.20;;;;;;6134508;28;81963;-69
2021/06/30 10:56:10;;;;;;;8.32;3.08;;;26.90;54.10;;;;;;6129477;28;80393;-72
2021/06/30 10:59:11;;;;;;;8.95;3.00;;;26.90;54.10;;;;;;6133148;28;80531;-70
2021/06/30 11:02:11;;;;;;;11.52;5.30;;;26.90;54.10;;;;;;6134724;28;80498;-68
2021/06/30 11:05:12;;;;;;;8.55;4.90;;;26.90;53.70;;;;;;6133491;28;80886;-67
2021/06/30 11:08:12;;;;;;;4.55;3.60;;;26.90;53.60;;;;;;6133042;28;80927;-68
2021/06/30 11:11:13;;;;;;;3.92;3.30;;;26.90;53.70;;;;;;6131768;28;80928;-69
2021/06/30 11:14:14;;;;;;;7.25;3.20;;;27.00;53.80;;;;;;6129741;28;83176;-69
2021/06/30 11:17:14;;;;;;;3.30;2.67;;;27.00;53.30;;;;;;6133783;28;80980;-69
2021/06/30 11:20:15;;;;;;;3.08;2.53;;;27.00;53.50;;;;;;6131865;28;80290;-70
2021/06/30 11:23:17;;;;;;;4.30;2.50;;;27.00;53.20;;;;;;6136237;28;80795;-68
2021/06/30 11:26:17;;;;;;;6.82;2.63;;;27.10;53.30;;;;;;6135701;28;80921;-69
2021/06/30 11:29:18;;;;;;;5.15;2.60;;;27.10;53.30;;;;;;6134642;28;81793;-69
2021/06/30 11:32:18;;;;;;;9.10;2.70;;;27.10;53.20;;;;;;6130355;28;86453;-69
2021/06/30 11:35:20;;;;;;;5.22;2.47;;;27.00;53.60;;;;;;6134629;28;80353;-70
2021/06/30 11:38:21;;;;;;;4.90;2.92;;;27.10;53.20;;;;;;6134413;28;81642;-68
2021/06/30 11:41:26;;;;;;;2.20;2.00;;;27.10;53.40;;;;;;6133462;28;80711;-69
2021/06/30 11:44:26;;;;;;;5.00;2.80;;;27.10;53.20;;;;;;6134043;28;80462;-68
2021/06/30 11:47:27;;;;;;;3.42;2.65;;;27.10;53.20;;;;;;6130829;28;81444;-67
2021/06/30 11:50:29;;;;;;;6.85;3.00;;;27.10;53.00;;;;;;6134646;28;80691;-67
2021/06/30 11:53:29;;;;;;;5.50;2.97;;;27.10;53.00;;;;;;6132368;28;80393;-67
2021/06/30 11:56:30;;;;;;;3.67;2.75;;;27.10;53.20;;;;;;6134730;28;80470;-67
2021/06/30 11:59:30;;;;;;;4.75;2.35;;;27.10;53.30;;;;;;6135512;28;81407;-68
2021/06/30 12:02:31;;;;;;;8.07;3.00;;;27.10;53.50;;;;;;6128380;28;80771;-68
2021/06/30 12:05:31;;;;;;;3.58;2.47;;;27.10;53.70;;;;;;6134859;28;80147;-68
2021/06/30 12:08:32;;;;;;;2.85;2.50;;;27.10;53.60;;;;;;6134717;28;81456;-69
2021/06/30 12:11:32;;;;;;;3.03;2.40;;;27.10;53.50;;;;;;6133826;28;81747;-69
2021/06/30 12:14:33;;;;;;;8.05;3.45;;;27.10;53.70;;;;;;6133000;28;83490;-69
2021/06/30 12:17:33;;;;;;;5.15;2.70;;;27.10;53.60;;;;;;6136001;28;88098;-68
2021/06/30 12:20:34;;;;;;;4.93;2.67;;;27.20;53.60;;;;;;6128322;28;80911;-69
2021/06/30 12:23:34;;;;;;;4.50;2.30;;;27.20;53.70;;;;;;6136816;28;81836;-67
2021/06/30 12:26:35;;;;;;;5.15;2.53;;;27.10;53.60;;;;;;6134472;28;80597;-70
2021/06/30 12:29:37;;;;;;;3.97;3.08;;;27.20;53.70;;;;;;6136610;28;80543;-69
2021/06/30 12:32:37;;;;;;;4.95;3.17;;;27.10;53.50;;;;;;6135075;28;82140;-70
2021/06/30 12:35:38;;;;;;;3.95;3.20;;;27.10;53.50;;;;;;6122939;28;80954;-69
2021/06/30 12:38:38;;;;;;;3.67;3.05;;;27.10;54.00;;;;;;6129162;28;80785;-69
2021/06/30 12:41:39;;;;;;;6.75;3.03;;;27.10;54.10;;;;;;6122831;28;80909;-69
2021/06/30 12:44:39;;;;;;;4.18;3.00;;;27.10;54.10;;;;;;6128862;28;80644;-69
2021/06/30 12:47:40;;;;;;;6.43;3.75;;;27.10;54.10;;;;;;6130961;28;83976;-68
2021/06/30 12:50:40;;;;;;;7.88;3.17;;;27.20;54.40;;;;;;6134075;28;81018;-68
2021/06/30 12:53:43;;;;;;;17.75;4.25;;;27.20;54.20;;;;;;6132587;28;80650;-68
2021/06/30 12:56:44;;;;;;;14.48;3.45;;;27.10;53.80;;;;;;6132758;28;81261;-70
2021/06/30 12:59:45;;;;;;;9.43;4.10;;;27.20;53.90;;;;;;6119303;28;80326;-65
2021/06/30 13:02:45;;;;;;;10.45;3.60;;;27.20;54.20;;;;;;6128580;28;81070;-67
2021/06/30 13:05:46;;;;;;;8.27;3.47;;;27.20;54.40;;;;;;6135080;28;80523;-68
2021/06/30 13:08:47;;;;;;;9.23;3.47;;;27.10;54.70;;;;;;6115322;28;81436;-68
2021/06/30 13:11:48;;;;;;;8.75;3.50;;;27.10;54.60;;;;;;6116022;28;81190;-68
2021/06/30 13:14:49;;;;;;;8.52;3.00;;;27.20;55.30;;;;;;6131658;28;81098;-69
2021/06/30 13:17:50;;;;;;;8.80;3.38;;;27.20;54.50;;;;;;6131800;28;80370;-70
2021/06/30 13:20:50;;;;;;;14.48;3.53;;;27.20;54.40;;;;;;6131866;28;80453;-69
2021/06/30 13:24:09;;;;;;;5.82;2.72;;;27.20;53.60;;;;;;6133673;28;80921;-71
2021/06/30 13:34:18;;;;;;;8.07;2.95;;;27.20;52.20;;;;;;6134497;28;81845;-68
2021/06/30 13:37:19;;;;;;;9.05;2.90;;;27.20;52.40;;;;;;6130849;28;85125;-69
2021/06/30 13:40:19;;;;;;;10.23;2.75;;;27.20;52.50;;;;;;6131970;28;81729;-69
2021/06/30 13:43:20;;;;;;;10.50;3.22;;;27.20;52.40;;;;;;6134755;28;80123;-70
2021/06/30 13:46:21;;;;;;;8.23;3.22;;;27.20;52.60;;;;;;6128522;28;81107;-69
2021/06/30 13:49:21;;;;;;;5.22;2.55;;;27.20;52.60;;;;;;6131165;28;80549;-69
2021/06/30 13:52:22;;;;;;;12.23;2.92;;;27.20;52.70;;;;;;6130532;28;81009;-68
2021/06/30 13:55:25;;;;;;;11.98;5.20;;;27.20;52.70;;;;;;6128492;28;80508;-66
2021/06/30 13:58:25;;;;;;;10.70;4.97;;;27.20;52.50;;;;;;6131686;28;80694;-68
2021/06/30 14:01:26;;;;;;;8.45;4.10;;;27.30;52.90;;;;;;6130816;28;81901;-71
2021/06/30 14:04:26;;;;;;;9.10;4.18;;;27.20;52.50;;;;;;6137587;28;80471;-69
2021/06/30 14:07:27;;;;;;;8.10;3.45;;;27.30;52.50;;;;;;6137699;28;80492;-69
2021/06/30 14:10:27;;;;;;;5.50;3.28;;;27.30;52.70;;;;;;6133392;28;80345;-69
2021/06/30 14:13:28;;;;;;;14.55;4.65;;;27.20;52.70;;;;;;6132325;28;82062;-68
2021/06/30 14:16:28;;;;;;;8.02;2.90;;;27.30;52.70;;;;;;6136400;28;81054;-72
2021/06/30 14:19:29;;;;;;;6.38;2.30;;;27.30;52.30;;;;;;6130736;28;80471;-68
2021/06/30 14:22:29;;;;;;;9.82;2.60;;;27.30;52.40;;;;;;6134609;28;81801;-67
2021/06/30 14:25:30;;;;;;;5.68;2.60;;;27.30;52.60;;;;;;6134259;28;80236;-66
2021/06/30 14:28:32;;;;;;;4.32;2.63;;;27.30;52.80;;;;;;6132718;28;80463;-68
2021/06/30 14:31:32;;;;;;;5.03;2.40;;;27.30;53.10;;;;;;6138469;28;80414;-68
2021/06/30 14:34:33;;;;;;;4.78;2.25;;;27.30;53.40;;;;;;6134409;28;80325;-70
2021/06/30 14:37:34;;;;;;;8.23;2.53;;;27.30;53.50;;;;;;6125354;28;80651;-68
2021/06/30 14:40:34;;;;;;;6.07;2.50;;;27.30;53.40;;;;;;6126957;28;82317;-66
2021/06/30 14:43:35;;;;;;;5.72;2.17;;;27.30;53.30;;;;;;6135058;28;80494;-66
2021/06/30 14:46:36;;;;;;;3.80;2.25;;;27.30;53.30;;;;;;6131397;28;81545;-70
2021/06/30 14:49:36;;;;;;;7.65;2.70;;;27.30;53.50;;;;;;6136400;28;80547;-69
2021/06/30 14:52:37;;;;;;;5.82;2.33;;;27.30;53.50;;;;;;6135161;28;82290;-69
2021/06/30 14:55:37;;;;;;;10.48;3.05;;;27.30;53.50;;;;;;6134495;28;80489;-66
2021/06/30 14:58:39;;;;;;;5.32;2.22;;;27.30;53.70;;;;;;6129900;28;81681;-67
2021/06/30 15:01:39;;;;;;;7.55;2.83;;;27.30;53.40;;;;;;6133437;28;81388;-65
2021/06/30 15:04:40;;;;;;;3.80;2.25;;;27.30;53.30;;;;;;6131892;28;81169;-66
2021/06/30 15:07:40;;;;;;;4.25;2.55;;;27.30;53.10;;;;;;6131616;28;80857;-66
2021/06/30 15:10:40;;;;;;;9.70;3.38;;;27.30;53.50;;;;;;6126765;28;80877;-65
2021/06/30 15:13:41;;;;;;;3.40;2.55;;;27.30;53.40;;;;;;6128090;28;80541;-66
2021/06/30 15:16:41;;;;;;;4.07;3.25;;;27.30;53.60;;;;;;6131294;28;81547;-66
2021/06/30 15:19:42;;;;;;;5.40;2.92;;;27.30;53.40;;;;;;6132126;28;80755;-65
2021/06/30 15:22:43;;;;;;;7.93;2.90;;;27.30;53.10;;;;;;6131308;28;81859;-67
2021/06/30 15:25:43;;;;;;;3.20;2.60;;;27.30;53.20;;;;;;6128136;28;81064;-66
2021/06/30 15:28:44;;;;;;;8.43;2.88;;;27.30;53.30;;;;;;6131266;28;82860;-67
2021/06/30 15:31:44;;;;;;;3.17;2.78;;;27.30;53.20;;;;;;6137790;28;80727;-66
2021/06/30 15:34:46;;;;;;;4.90;2.65;;;27.30;53.10;;;;;;6129593;28;80546;-65
2021/06/30 15:37:46;;;;;;;3.15;2.30;;;27.30;53.30;;;;;;6124795;28;80595;-66
2021/06/30 15:40:47;;;;;;;8.48;2.78;;;27.30;54.00;;;;;;6135328;28;80563;-66
2021/06/30 15:43:47;;;;;;;7.88;2.83;;;27.30;53.70;;;;;;6133633;28;80572;-66
2021/06/30 15:46:48;;;;;;;3.38;2.53;;;27.30;53.50;;;;;;6141749;28;80313;-66